Ollie, Kentucky
Current Conditions -  °F | °C
As of 9:55 PM on Saturday 25 Oct 2014 (Local Time) from KGLW Reporting Station
Moderate Fog Moderate Fog  
Wind Chill: 55°   Ceiling: 300
Heat Index: 55°   Visibility: 0.5mi
Dew Point: 55°   Wind: 0mph
Humidity: 100%   Direction: NA
Pressure: 30.01"   Gusts: NA
Location:  37.2519°N, 86.1739°W
Report Text: KGLW 260255Z AUTO 00000KT 1/2SM FG OVC003 13/13 A3001 RMK AO2 VIS 1/4V4 T01280128
Loading
Personal Weather Stations






























Interactive Weather Map
Tropical Storm Tracking
New forecast layout! Learn more

10-Day Weather Forecast

Advertisements
Track Severe Weather on mobile